sensor_id;sensor_type;location;lat;lon;timestamp;P1;durP1;ratioP1;P2;durP2;ratioP2
4569;SDS011;2297;51.442;6.996;2023-05-31T00:01:17;11.98;;;8.30;;
4569;SDS011;2297;51.442;6.996;2023-05-31T00:03:44;13.20;;;8.70;;
4569;SDS011;2297;51.442;6.996;2023-05-31T00:06:11;12.57;;;8.45;;
4569;SDS011;2297;51.442;6.996;2023-05-31T00:08:37;15.40;;;8.73;;
4569;SDS011;2297;51.442;6.996;2023-05-31T00:11:09;13.25;;;8.55;;
4569;SDS011;2297;51.442;6.996;2023-05-31T00:13:35;12.80;;;8.38;;
4569;SDS011;2297;51.442;6.996;2023-05-31T00:16:03;14.27;;;9.60;;
4569;SDS011;2297;51.442;6.996;2023-05-31T00:18:30;12.48;;;8.48;;
4569;SDS011;2297;51.442;6.996;2023-05-31T00:20:57;13.40;;;9.07;;
4569;SDS011;2297;51.442;6.996;2023-05-31T00:23:23;12.80;;;8.15;;
4569;SDS011;2297;51.442;6.996;2023-05-31T00:25:50;12.35;;;8.80;;
4569;SDS011;2297;51.442;6.996;2023-05-31T00:28:18;12.07;;;8.43;;
4569;SDS011;2297;51.442;6.996;2023-05-31T00:30:45;13.18;;;9.40;;
4569;SDS011;2297;51.442;6.996;2023-05-31T00:33:11;12.35;;;8.57;;
4569;SDS011;2297;51.442;6.996;2023-05-31T00:35:38;11.55;;;8.43;;
4569;SDS011;2297;51.442;6.996;2023-05-31T00:38:05;15.02;;;9.63;;
4569;SDS011;2297;51.442;6.996;2023-05-31T00:40:32;16.02;;;8.13;;
4569;SDS011;2297;51.442;6.996;2023-05-31T00:42:59;13.52;;;8.82;;
4569;SDS011;2297;51.442;6.996;2023-05-31T00:45:27;13.50;;;9.38;;
4569;SDS011;2297;51.442;6.996;2023-05-31T00:47:55;12.48;;;8.52;;
4569;SDS011;2297;51.442;6.996;2023-05-31T00:50:22;13.48;;;8.52;;
4569;SDS011;2297;51.442;6.996;2023-05-31T00:52:49;14.05;;;9.20;;
4569;SDS011;2297;51.442;6.996;2023-05-31T00:55:17;14.73;;;8.68;;
4569;SDS011;2297;51.442;6.996;2023-05-31T00:57:44;14.48;;;9.30;;
4569;SDS011;2297;51.442;6.996;2023-05-31T01:00:11;11.40;;;8.60;;
4569;SDS011;2297;51.442;6.996;2023-05-31T01:02:41;12.60;;;9.25;;
4569;SDS011;2297;51.442;6.996;2023-05-31T01:05:08;14.45;;;9.65;;
4569;SDS011;2297;51.442;6.996;2023-05-31T01:07:35;15.55;;;8.95;;
4569;SDS011;2297;51.442;6.996;2023-05-31T01:10:03;14.80;;;9.18;;
4569;SDS011;2297;51.442;6.996;2023-05-31T01:15:19;11.45;;;8.52;;
4569;SDS011;2297;51.442;6.996;2023-05-31T01:17:51;12.32;;;8.80;;
4569;SDS011;2297;51.442;6.996;2023-05-31T01:20:26;13.02;;;9.27;;
4569;SDS011;2297;51.442;6.996;2023-05-31T01:23:04;18.08;;;8.75;;
4569;SDS011;2297;51.442;6.996;2023-05-31T01:28:33;12.25;;;9.18;;
4569;SDS011;2297;51.442;6.996;2023-05-31T01:31:05;14.95;;;8.80;;
4569;SDS011;2297;51.442;6.996;2023-05-31T01:33:33;14.20;;;9.90;;
4569;SDS011;2297;51.442;6.996;2023-05-31T01:36:02;16.25;;;10.07;;
4569;SDS011;2297;51.442;6.996;2023-05-31T01:38:29;13.48;;;9.27;;
4569;SDS011;2297;51.442;6.996;2023-05-31T01:40:55;11.52;;;8.43;;
4569;SDS011;2297;51.442;6.996;2023-05-31T01:43:24;11.40;;;8.25;;
4569;SDS011;2297;51.442;6.996;2023-05-31T01:45:53;15.13;;;10.00;;
4569;SDS011;2297;51.442;6.996;2023-05-31T01:48:22;15.10;;;8.93;;
4569;SDS011;2297;51.442;6.996;2023-05-31T01:50:49;12.77;;;8.60;;
4569;SDS011;2297;51.442;6.996;2023-05-31T01:53:17;13.77;;;9.65;;
4569;SDS011;2297;51.442;6.996;2023-05-31T01:55:44;13.85;;;9.60;;
4569;SDS011;2297;51.442;6.996;2023-05-31T01:58:11;12.02;;;8.63;;
4569;SDS011;2297;51.442;6.996;2023-05-31T02:00:38;11.48;;;8.68;;
4569;SDS011;2297;51.442;6.996;2023-05-31T02:03:08;12.13;;;9.02;;
4569;SDS011;2297;51.442;6.996;2023-05-31T02:05:35;12.13;;;8.50;;
4569;SDS011;2297;51.442;6.996;2023-05-31T02:08:02;12.10;;;8.85;;
4569;SDS011;2297;51.442;6.996;2023-05-31T02:10:29;11.43;;;8.25;;
4569;SDS011;2297;51.442;6.996;2023-05-31T02:12:56;11.30;;;8.55;;
4569;SDS011;2297;51.442;6.996;2023-05-31T02:15:22;12.20;;;8.75;;
4569;SDS011;2297;51.442;6.996;2023-05-31T02:17:49;11.77;;;8.18;;
4569;SDS011;2297;51.442;6.996;2023-05-31T02:20:18;13.80;;;8.20;;
4569;SDS011;2297;51.442;6.996;2023-05-31T02:22:45;14.55;;;7.93;;
4569;SDS011;2297;51.442;6.996;2023-05-31T02:25:13;13.13;;;9.10;;
4569;SDS011;2297;51.442;6.996;2023-05-31T02:27:40;12.93;;;9.30;;
4569;SDS011;2297;51.442;6.996;2023-05-31T02:30:08;12.60;;;8.63;;
4569;SDS011;2297;51.442;6.996;2023-05-31T02:32:36;13.20;;;9.05;;
4569;SDS011;2297;51.442;6.996;2023-05-31T02:35:07;15.77;;;9.25;;
4569;SDS011;2297;51.442;6.996;2023-05-31T02:37:36;14.90;;;9.18;;
4569;SDS011;2297;51.442;6.996;2023-05-31T02:40:04;11.82;;;8.80;;
4569;SDS011;2297;51.442;6.996;2023-05-31T02:42:33;13.60;;;9.13;;
4569;SDS011;2297;51.442;6.996;2023-05-31T02:45:00;11.65;;;8.85;;
4569;SDS011;2297;51.442;6.996;2023-05-31T02:47:27;13.35;;;8.57;;
4569;SDS011;2297;51.442;6.996;2023-05-31T02:49:54;14.30;;;8.80;;
4569;SDS011;2297;51.442;6.996;2023-05-31T02:52:20;13.70;;;8.60;;
4569;SDS011;2297;51.442;6.996;2023-05-31T02:54:49;13.15;;;8.20;;
4569;SDS011;2297;51.442;6.996;2023-05-31T02:57:16;11.88;;;8.90;;
4569;SDS011;2297;51.442;6.996;2023-05-31T02:59:43;14.13;;;9.55;;
4569;SDS011;2297;51.442;6.996;2023-05-31T03:02:09;13.98;;;9.45;;
4569;SDS011;2297;51.442;6.996;2023-05-31T03:04:36;12.35;;;8.77;;
4569;SDS011;2297;51.442;6.996;2023-05-31T03:07:03;15.02;;;8.68;;
4569;SDS011;2297;51.442;6.996;2023-05-31T03:09:30;12.10;;;8.70;;
4569;SDS011;2297;51.442;6.996;2023-05-31T03:11:58;16.15;;;8.80;;
4569;SDS011;2297;51.442;6.996;2023-05-31T03:14:24;11.60;;;8.80;;
4569;SDS011;2297;51.442;6.996;2023-05-31T03:16:51;14.52;;;9.40;;
4569;SDS011;2297;51.442;6.996;2023-05-31T03:19:17;13.23;;;9.25;;
4569;SDS011;2297;51.442;6.996;2023-05-31T03:21:44;14.32;;;9.10;;
4569;SDS011;2297;51.442;6.996;2023-05-31T03:24:11;14.23;;;9.48;;
4569;SDS011;2297;51.442;6.996;2023-05-31T03:26:37;13.68;;;9.50;;
4569;SDS011;2297;51.442;6.996;2023-05-31T03:29:05;12.90;;;8.55;;
4569;SDS011;2297;51.442;6.996;2023-05-31T03:31:32;15.68;;;10.05;;
4569;SDS011;2297;51.442;6.996;2023-05-31T03:33:59;15.30;;;9.57;;
4569;SDS011;2297;51.442;6.996;2023-05-31T03:36:26;12.60;;;9.20;;
4569;SDS011;2297;51.442;6.996;2023-05-31T03:38:52;14.77;;;8.82;;
4569;SDS011;2297;51.442;6.996;2023-05-31T03:41:19;13.55;;;9.32;;
4569;SDS011;2297;51.442;6.996;2023-05-31T03:43:46;16.02;;;9.27;;
4569;SDS011;2297;51.442;6.996;2023-05-31T03:46:17;16.33;;;9.68;;
4569;SDS011;2297;51.442;6.996;2023-05-31T03:48:43;13.65;;;10.05;;
4569;SDS011;2297;51.442;6.996;2023-05-31T03:51:10;13.75;;;9.75;;
4569;SDS011;2297;51.442;6.996;2023-05-31T03:53:42;12.88;;;9.23;;
4569;SDS011;2297;51.442;6.996;2023-05-31T03:56:09;12.98;;;9.18;;
4569;SDS011;2297;51.442;6.996;2023-05-31T03:58:35;14.10;;;9.48;;
4569;SDS011;2297;51.442;6.996;2023-05-31T04:01:02;16.58;;;9.43;;
4569;SDS011;2297;51.442;6.996;2023-05-31T04:03:30;14.88;;;9.00;;
4569;SDS011;2297;51.442;6.996;2023-05-31T04:05:57;12.63;;;9.23;;
4569;SDS011;2297;51.442;6.996;2023-05-31T04:08:23;14.75;;;9.85;;
4569;SDS011;2297;51.442;6.996;2023-05-31T04:10:50;13.88;;;10.15;;
4569;SDS011;2297;51.442;6.996;2023-05-31T04:13:17;15.05;;;9.23;;
4569;SDS011;2297;51.442;6.996;2023-05-31T04:15:43;13.85;;;9.50;;
4569;SDS011;2297;51.442;6.996;2023-05-31T04:18:10;14.73;;;9.30;;
4569;SDS011;2297;51.442;6.996;2023-05-31T04:20:38;15.38;;;8.98;;
4569;SDS011;2297;51.442;6.996;2023-05-31T04:23:04;14.65;;;9.32;;
4569;SDS011;2297;51.442;6.996;2023-05-31T04:25:31;14.48;;;8.90;;
4569;SDS011;2297;51.442;6.996;2023-05-31T04:27:58;15.20;;;10.15;;
4569;SDS011;2297;51.442;6.996;2023-05-31T04:30:24;12.55;;;9.18;;
4569;SDS011;2297;51.442;6.996;2023-05-31T04:32:52;13.52;;;9.02;;
4569;SDS011;2297;51.442;6.996;2023-05-31T04:35:21;13.73;;;9.27;;
4569;SDS011;2297;51.442;6.996;2023-05-31T04:37:49;12.65;;;9.15;;
4569;SDS011;2297;51.442;6.996;2023-05-31T04:40:17;13.98;;;9.25;;
4569;SDS011;2297;51.442;6.996;2023-05-31T04:42:44;14.32;;;9.30;;
4569;SDS011;2297;51.442;6.996;2023-05-31T04:45:11;17.58;;;9.40;;
4569;SDS011;2297;51.442;6.996;2023-05-31T04:47:38;16.45;;;10.23;;
4569;SDS011;2297;51.442;6.996;2023-05-31T04:50:05;14.77;;;8.95;;
4569;SDS011;2297;51.442;6.996;2023-05-31T04:52:32;16.63;;;9.27;;
4569;SDS011;2297;51.442;6.996;2023-05-31T04:55:00;16.85;;;10.23;;
4569;SDS011;2297;51.442;6.996;2023-05-31T04:57:28;15.18;;;9.43;;
4569;SDS011;2297;51.442;6.996;2023-05-31T04:59:55;14.05;;;9.15;;
4569;SDS011;2297;51.442;6.996;2023-05-31T05:02:22;13.50;;;9.75;;
4569;SDS011;2297;51.442;6.996;2023-05-31T05:04:49;17.67;;;10.23;;
4569;SDS011;2297;51.442;6.996;2023-05-31T05:07:16;16.95;;;9.65;;
4569;SDS011;2297;51.442;6.996;2023-05-31T05:09:43;15.63;;;8.75;;
4569;SDS011;2297;51.442;6.996;2023-05-31T05:12:11;14.85;;;9.90;;
4569;SDS011;2297;51.442;6.996;2023-05-31T05:14:56;15.70;;;9.25;;
4569;SDS011;2297;51.442;6.996;2023-05-31T05:17:22;16.00;;;9.40;;
4569;SDS011;2297;51.442;6.996;2023-05-31T05:19:49;14.77;;;9.07;;
4569;SDS011;2297;51.442;6.996;2023-05-31T05:22:16;18.70;;;10.98;;
4569;SDS011;2297;51.442;6.996;2023-05-31T05:24:43;19.95;;;11.30;;
4569;SDS011;2297;51.442;6.996;2023-05-31T05:27:12;21.40;;;11.02;;
4569;SDS011;2297;51.442;6.996;2023-05-31T05:29:39;15.77;;;8.63;;
4569;SDS011;2297;51.442;6.996;2023-05-31T05:32:06;17.85;;;10.13;;
4569;SDS011;2297;51.442;6.996;2023-05-31T05:34:33;16.60;;;10.25;;
4569;SDS011;2297;51.442;6.996;2023-05-31T05:37:00;14.57;;;9.35;;
4569;SDS011;2297;51.442;6.996;2023-05-31T05:39:27;17.27;;;9.95;;
4569;SDS011;2297;51.442;6.996;2023-05-31T05:41:53;15.20;;;9.70;;
4569;SDS011;2297;51.442;6.996;2023-05-31T05:44:21;16.50;;;9.85;;
4569;SDS011;2297;51.442;6.996;2023-05-31T05:46:48;17.55;;;10.02;;
4569;SDS011;2297;51.442;6.996;2023-05-31T05:49:15;17.08;;;10.18;;
4569;SDS011;2297;51.442;6.996;2023-05-31T05:51:42;17.30;;;10.07;;
4569;SDS011;2297;51.442;6.996;2023-05-31T05:54:08;17.40;;;10.75;;
4569;SDS011;2297;51.442;6.996;2023-05-31T05:56:35;19.70;;;10.05;;
4569;SDS011;2297;51.442;6.996;2023-05-31T05:59:02;15.90;;;9.93;;
4569;SDS011;2297;51.442;6.996;2023-05-31T06:01:30;16.13;;;10.38;;
4569;SDS011;2297;51.442;6.996;2023-05-31T06:03:57;13.68;;;8.77;;
4569;SDS011;2297;51.442;6.996;2023-05-31T06:06:23;15.80;;;9.68;;
4569;SDS011;2297;51.442;6.996;2023-05-31T06:08:51;16.88;;;8.90;;
4569;SDS011;2297;51.442;6.996;2023-05-31T06:11:17;15.05;;;9.43;;
4569;SDS011;2297;51.442;6.996;2023-05-31T06:13:45;16.45;;;9.63;;
4569;SDS011;2297;51.442;6.996;2023-05-31T06:16:12;13.10;;;8.90;;
4569;SDS011;2297;51.442;6.996;2023-05-31T06:18:41;17.67;;;9.80;;
4569;SDS011;2297;51.442;6.996;2023-05-31T06:21:07;16.40;;;9.95;;
4569;SDS011;2297;51.442;6.996;2023-05-31T06:23:34;16.15;;;9.50;;
4569;SDS011;2297;51.442;6.996;2023-05-31T06:26:00;15.68;;;9.55;;
4569;SDS011;2297;51.442;6.996;2023-05-31T06:28:27;15.77;;;9.82;;
4569;SDS011;2297;51.442;6.996;2023-05-31T06:30:54;17.90;;;9.95;;
4569;SDS011;2297;51.442;6.996;2023-05-31T06:33:21;11.70;;;8.20;;
4569;SDS011;2297;51.442;6.996;2023-05-31T06:35:49;18.63;;;10.00;;
4569;SDS011;2297;51.442;6.996;2023-05-31T06:38:16;16.65;;;9.35;;
4569;SDS011;2297;51.442;6.996;2023-05-31T06:40:43;13.88;;;9.13;;
4569;SDS011;2297;51.442;6.996;2023-05-31T06:43:10;14.88;;;8.52;;
4569;SDS011;2297;51.442;6.996;2023-05-31T06:45:36;14.18;;;9.02;;
4569;SDS011;2297;51.442;6.996;2023-05-31T06:51:29;17.95;;;9.15;;
4569;SDS011;2297;51.442;6.996;2023-05-31T06:53:56;15.80;;;8.55;;
4569;SDS011;2297;51.442;6.996;2023-05-31T06:56:23;14.10;;;9.02;;
4569;SDS011;2297;51.442;6.996;2023-05-31T06:58:51;15.88;;;8.75;;
4569;SDS011;2297;51.442;6.996;2023-05-31T07:01:17;19.27;;;9.55;;
4569;SDS011;2297;51.442;6.996;2023-05-31T07:03:44;13.80;;;8.63;;
4569;SDS011;2297;51.442;6.996;2023-05-31T07:06:10;13.55;;;7.78;;
4569;SDS011;2297;51.442;6.996;2023-05-31T07:08:38;17.15;;;8.38;;
4569;SDS011;2297;51.442;6.996;2023-05-31T07:11:05;16.58;;;8.68;;
4569;SDS011;2297;51.442;6.996;2023-05-31T07:13:32;13.50;;;8.35;;
4569;SDS011;2297;51.442;6.996;2023-05-31T07:15:58;18.30;;;8.43;;
4569;SDS011;2297;51.442;6.996;2023-05-31T07:18:25;17.73;;;9.65;;
4569;SDS011;2297;51.442;6.996;2023-05-31T07:20:51;15.13;;;8.40;;
4569;SDS011;2297;51.442;6.996;2023-05-31T07:23:21;15.27;;;7.70;;
4569;SDS011;2297;51.442;6.996;2023-05-31T07:25:49;13.95;;;7.97;;
4569;SDS011;2297;51.442;6.996;2023-05-31T07:28:16;16.48;;;8.23;;
4569;SDS011;2297;51.442;6.996;2023-05-31T07:30:42;13.45;;;7.80;;
4569;SDS011;2297;51.442;6.996;2023-05-31T07:33:09;18.17;;;8.02;;
4569;SDS011;2297;51.442;6.996;2023-05-31T07:35:36;16.00;;;8.02;;
4569;SDS011;2297;51.442;6.996;2023-05-31T07:38:02;14.32;;;7.40;;
4569;SDS011;2297;51.442;6.996;2023-05-31T07:40:29;13.23;;;8.32;;
4569;SDS011;2297;51.442;6.996;2023-05-31T07:42:57;44.00;;;11.65;;
4569;SDS011;2297;51.442;6.996;2023-05-31T07:45:24;18.98;;;8.77;;
4569;SDS011;2297;51.442;6.996;2023-05-31T07:47:50;14.43;;;8.00;;
4569;SDS011;2297;51.442;6.996;2023-05-31T07:50:17;13.82;;;7.75;;
4569;SDS011;2297;51.442;6.996;2023-05-31T07:52:44;13.10;;;7.10;;
4569;SDS011;2297;51.442;6.996;2023-05-31T07:55:14;12.18;;;7.05;;
4569;SDS011;2297;51.442;6.996;2023-05-31T07:57:41;12.25;;;7.50;;
4569;SDS011;2297;51.442;6.996;2023-05-31T08:00:09;12.18;;;7.30;;
4569;SDS011;2297;51.442;6.996;2023-05-31T08:02:38;12.43;;;7.05;;
4569;SDS011;2297;51.442;6.996;2023-05-31T08:05:05;17.15;;;7.57;;
4569;SDS011;2297;51.442;6.996;2023-05-31T08:07:32;14.30;;;6.90;;
4569;SDS011;2297;51.442;6.996;2023-05-31T08:09:59;10.40;;;7.40;;
4569;SDS011;2297;51.442;6.996;2023-05-31T08:12:26;16.75;;;7.78;;
4569;SDS011;2297;51.442;6.996;2023-05-31T08:14:52;13.68;;;8.00;;
4569;SDS011;2297;51.442;6.996;2023-05-31T08:17:33;18.00;;;8.27;;
4569;SDS011;2297;51.442;6.996;2023-05-31T08:19:59;11.85;;;7.03;;
4569;SDS011;2297;51.442;6.996;2023-05-31T08:22:26;14.10;;;7.20;;
4569;SDS011;2297;51.442;6.996;2023-05-31T08:24:53;15.40;;;7.90;;
4569;SDS011;2297;51.442;6.996;2023-05-31T08:27:19;15.35;;;7.32;;
4569;SDS011;2297;51.442;6.996;2023-05-31T08:29:47;10.25;;;6.50;;
4569;SDS011;2297;51.442;6.996;2023-05-31T08:32:14;13.52;;;7.05;;
4569;SDS011;2297;51.442;6.996;2023-05-31T08:34:42;11.15;;;6.93;;
4569;SDS011;2297;51.442;6.996;2023-05-31T08:37:10;15.05;;;6.97;;
4569;SDS011;2297;51.442;6.996;2023-05-31T08:39:37;17.65;;;6.90;;
4569;SDS011;2297;51.442;6.996;2023-05-31T08:42:04;14.50;;;7.30;;
4569;SDS011;2297;51.442;6.996;2023-05-31T08:44:35;11.63;;;6.53;;
4569;SDS011;2297;51.442;6.996;2023-05-31T08:47:04;13.40;;;6.90;;
4569;SDS011;2297;51.442;6.996;2023-05-31T08:49:35;22.02;;;7.22;;
4569;SDS011;2297;51.442;6.996;2023-05-31T08:52:03;11.48;;;6.25;;
4569;SDS011;2297;51.442;6.996;2023-05-31T08:54:32;11.13;;;5.60;;
4569;SDS011;2297;51.442;6.996;2023-05-31T08:57:00;13.95;;;6.57;;
4569;SDS011;2297;51.442;6.996;2023-05-31T08:59:28;9.18;;;5.88;;
4569;SDS011;2297;51.442;6.996;2023-05-31T09:01:55;13.80;;;5.35;;
4569;SDS011;2297;51.442;6.996;2023-05-31T09:04:25;10.25;;;4.75;;
4569;SDS011;2297;51.442;6.996;2023-05-31T09:06:52;8.80;;;5.40;;
4569;SDS011;2297;51.442;6.996;2023-05-31T09:09:20;10.05;;;4.68;;
4569;SDS011;2297;51.442;6.996;2023-05-31T09:11:47;8.10;;;4.95;;
4569;SDS011;2297;51.442;6.996;2023-05-31T09:14:14;14.32;;;4.90;;
4569;SDS011;2297;51.442;6.996;2023-05-31T09:16:41;8.73;;;4.32;;
4569;SDS011;2297;51.442;6.996;2023-05-31T09:19:07;8.43;;;4.47;;
4569;SDS011;2297;51.442;6.996;2023-05-31T09:21:37;7.53;;;4.60;;
4569;SDS011;2297;51.442;6.996;2023-05-31T09:24:05;10.77;;;5.53;;
4569;SDS011;2297;51.442;6.996;2023-05-31T09:26:34;11.02;;;5.28;;
4569;SDS011;2297;51.442;6.996;2023-05-31T09:29:00;14.07;;;5.25;;
4569;SDS011;2297;51.442;6.996;2023-05-31T09:31:27;10.57;;;4.40;;
4569;SDS011;2297;51.442;6.996;2023-05-31T09:33:54;7.53;;;4.20;;
4569;SDS011;2297;51.442;6.996;2023-05-31T09:36:24;6.88;;;3.92;;
4569;SDS011;2297;51.442;6.996;2023-05-31T09:38:57;6.70;;;4.10;;
4569;SDS011;2297;51.442;6.996;2023-05-31T09:41:27;8.88;;;3.92;;
4569;SDS011;2297;51.442;6.996;2023-05-31T09:43:55;9.45;;;4.20;;
4569;SDS011;2297;51.442;6.996;2023-05-31T09:46:22;12.38;;;4.65;;
4569;SDS011;2297;51.442;6.996;2023-05-31T09:48:57;7.88;;;3.83;;
4569;SDS011;2297;51.442;6.996;2023-05-31T09:51:24;8.85;;;4.10;;
4569;SDS011;2297;51.442;6.996;2023-05-31T09:53:51;6.40;;;3.72;;
4569;SDS011;2297;51.442;6.996;2023-05-31T09:56:21;10.55;;;3.50;;
4569;SDS011;2297;51.442;6.996;2023-05-31T09:58:50;7.85;;;3.70;;
4569;SDS011;2297;51.442;6.996;2023-05-31T10:01:19;8.25;;;3.45;;
4569;SDS011;2297;51.442;6.996;2023-05-31T10:03:45;5.55;;;2.88;;
4569;SDS011;2297;51.442;6.996;2023-05-31T10:06:14;11.18;;;3.88;;
4569;SDS011;2297;51.442;6.996;2023-05-31T10:08:43;7.72;;;3.13;;
4569;SDS011;2297;51.442;6.996;2023-05-31T10:11:10;8.63;;;3.17;;
4569;SDS011;2297;51.442;6.996;2023-05-31T10:13:38;5.28;;;3.28;;
4569;SDS011;2297;51.442;6.996;2023-05-31T10:16:08;4.95;;;3.28;;
4569;SDS011;2297;51.442;6.996;2023-05-31T10:18:38;5.82;;;3.03;;
4569;SDS011;2297;51.442;6.996;2023-05-31T10:21:10;8.88;;;3.10;;
4569;SDS011;2297;51.442;6.996;2023-05-31T10:23:49;5.22;;;2.42;;
4569;SDS011;2297;51.442;6.996;2023-05-31T10:26:23;5.60;;;2.38;;
4569;SDS011;2297;51.442;6.996;2023-05-31T10:28:59;6.50;;;3.08;;
4569;SDS011;2297;51.442;6.996;2023-05-31T10:31:35;5.75;;;2.85;;
4569;SDS011;2297;51.442;6.996;2023-05-31T10:34:10;7.63;;;2.90;;
4569;SDS011;2297;51.442;6.996;2023-05-31T10:36:41;6.88;;;2.65;;
4569;SDS011;2297;51.442;6.996;2023-05-31T10:39:10;8.73;;;3.00;;
4569;SDS011;2297;51.442;6.996;2023-05-31T10:41:44;4.80;;;2.63;;
4569;SDS011;2297;51.442;6.996;2023-05-31T10:44:17;6.00;;;2.67;;
4569;SDS011;2297;51.442;6.996;2023-05-31T10:46:50;4.25;;;2.22;;
4569;SDS011;2297;51.442;6.996;2023-05-31T10:49:25;5.13;;;2.38;;
4569;SDS011;2297;51.442;6.996;2023-05-31T10:52:03;5.45;;;2.35;;
4569;SDS011;2297;51.442;6.996;2023-05-31T10:54:30;4.95;;;2.58;;
4569;SDS011;2297;51.442;6.996;2023-05-31T10:57:17;4.95;;;2.42;;
4569;SDS011;2297;51.442;6.996;2023-05-31T10:59:44;5.15;;;3.10;;
4569;SDS011;2297;51.442;6.996;2023-05-31T11:02:11;6.60;;;2.70;;
4569;SDS011;2297;51.442;6.996;2023-05-31T11:04:39;12.50;;;3.45;;
4569;SDS011;2297;51.442;6.996;2023-05-31T11:07:11;8.07;;;3.00;;
4569;SDS011;2297;51.442;6.996;2023-05-31T11:09:40;8.07;;;3.00;;
4569;SDS011;2297;51.442;6.996;2023-05-31T11:15:00;7.03;;;3.20;;
4569;SDS011;2297;51.442;6.996;2023-05-31T11:17:28;7.78;;;3.30;;
4569;SDS011;2297;51.442;6.996;2023-05-31T11:19:56;4.68;;;2.67;;
4569;SDS011;2297;51.442;6.996;2023-05-31T11:22:26;6.80;;;2.70;;
4569;SDS011;2297;51.442;6.996;2023-05-31T11:24:54;8.77;;;2.33;;
4569;SDS011;2297;51.442;6.996;2023-05-31T11:27:24;7.82;;;2.95;;
4569;SDS011;2297;51.442;6.996;2023-05-31T11:30:01;5.85;;;2.67;;
4569;SDS011;2297;51.442;6.996;2023-05-31T11:35:23;4.60;;;2.50;;
4569;SDS011;2297;51.442;6.996;2023-05-31T11:37:56;7.90;;;3.22;;
4569;SDS011;2297;51.442;6.996;2023-05-31T11:40:26;7.03;;;2.80;;
4569;SDS011;2297;51.442;6.996;2023-05-31T11:42:54;6.78;;;2.70;;
4569;SDS011;2297;51.442;6.996;2023-05-31T11:45:28;8.23;;;3.10;;
4569;SDS011;2297;51.442;6.996;2023-05-31T11:47:59;5.13;;;2.50;;
4569;SDS011;2297;51.442;6.996;2023-05-31T11:50:36;6.95;;;2.65;;
4569;SDS011;2297;51.442;6.996;2023-05-31T11:53:04;9.65;;;2.75;;
4569;SDS011;2297;51.442;6.996;2023-05-31T11:55:32;7.15;;;2.65;;
4569;SDS011;2297;51.442;6.996;2023-05-31T11:58:00;4.60;;;2.50;;
4569;SDS011;2297;51.442;6.996;2023-05-31T12:00:27;6.28;;;2.60;;
4569;SDS011;2297;51.442;6.996;2023-05-31T12:02:54;8.35;;;2.97;;
4569;SDS011;2297;51.442;6.996;2023-05-31T12:05:22;5.65;;;2.63;;
4569;SDS011;2297;51.442;6.996;2023-05-31T12:07:53;13.93;;;3.22;;
4569;SDS011;2297;51.442;6.996;2023-05-31T12:10:21;7.15;;;2.60;;
4569;SDS011;2297;51.442;6.996;2023-05-31T12:12:51;5.50;;;2.50;;
4569;SDS011;2297;51.442;6.996;2023-05-31T12:15:18;11.25;;;2.90;;
4569;SDS011;2297;51.442;6.996;2023-05-31T12:21:06;8.07;;;2.83;;
4569;SDS011;2297;51.442;6.996;2023-05-31T12:26:21;7.95;;;3.33;;
4569;SDS011;2297;51.442;6.996;2023-05-31T12:28:48;8.93;;;3.20;;
4569;SDS011;2297;51.442;6.996;2023-05-31T12:31:21;4.72;;;2.60;;
4569;SDS011;2297;51.442;6.996;2023-05-31T12:33:57;5.10;;;3.20;;
4569;SDS011;2297;51.442;6.996;2023-05-31T12:36:26;5.95;;;2.65;;
4569;SDS011;2297;51.442;6.996;2023-05-31T12:38:55;5.47;;;2.60;;
4569;SDS011;2297;51.442;6.996;2023-05-31T12:41:22;4.22;;;2.28;;
4569;SDS011;2297;51.442;6.996;2023-05-31T12:43:50;5.30;;;2.50;;
4569;SDS011;2297;51.442;6.996;2023-05-31T12:46:18;6.20;;;2.40;;
4569;SDS011;2297;51.442;6.996;2023-05-31T12:48:46;7.47;;;2.97;;
4569;SDS011;2297;51.442;6.996;2023-05-31T12:51:12;5.82;;;2.78;;
4569;SDS011;2297;51.442;6.996;2023-05-31T12:53:39;4.40;;;2.30;;
4569;SDS011;2297;51.442;6.996;2023-05-31T12:56:07;4.15;;;2.15;;
4569;SDS011;2297;51.442;6.996;2023-05-31T12:58:34;6.75;;;2.35;;
4569;SDS011;2297;51.442;6.996;2023-05-31T13:01:01;6.82;;;2.70;;
4569;SDS011;2297;51.442;6.996;2023-05-31T13:03:28;4.97;;;2.65;;
4569;SDS011;2297;51.442;6.996;2023-05-31T13:05:54;6.25;;;2.38;;
4569;SDS011;2297;51.442;6.996;2023-05-31T13:08:21;7.47;;;2.70;;
4569;SDS011;2297;51.442;6.996;2023-05-31T13:10:48;4.22;;;2.20;;
4569;SDS011;2297;51.442;6.996;2023-05-31T13:13:16;10.02;;;2.75;;
4569;SDS011;2297;51.442;6.996;2023-05-31T13:15:43;6.13;;;3.03;;
4569;SDS011;2297;51.442;6.996;2023-05-31T13:18:11;5.47;;;2.30;;
4569;SDS011;2297;51.442;6.996;2023-05-31T13:20:37;5.47;;;2.30;;
4569;SDS011;2297;51.442;6.996;2023-05-31T13:23:04;5.82;;;2.55;;
4569;SDS011;2297;51.442;6.996;2023-05-31T13:25:33;6.35;;;2.65;;
4569;SDS011;2297;51.442;6.996;2023-05-31T13:28:00;5.38;;;2.42;;
4569;SDS011;2297;51.442;6.996;2023-05-31T13:30:28;4.30;;;2.33;;
4569;SDS011;2297;51.442;6.996;2023-05-31T13:32:54;4.03;;;2.20;;
4569;SDS011;2297;51.442;6.996;2023-05-31T13:35:21;6.18;;;3.08;;
4569;SDS011;2297;51.442;6.996;2023-05-31T13:37:48;8.80;;;3.28;;
4569;SDS011;2297;51.442;6.996;2023-05-31T13:40:14;4.25;;;2.20;;
4569;SDS011;2297;51.442;6.996;2023-05-31T13:42:41;5.70;;;2.22;;
4569;SDS011;2297;51.442;6.996;2023-05-31T13:45:08;5.45;;;2.15;;
4569;SDS011;2297;51.442;6.996;2023-05-31T13:47:37;6.57;;;2.50;;
4569;SDS011;2297;51.442;6.996;2023-05-31T13:50:04;5.68;;;2.58;;
4569;SDS011;2297;51.442;6.996;2023-05-31T13:52:31;3.75;;;2.10;;
4569;SDS011;2297;51.442;6.996;2023-05-31T13:54:58;5.55;;;2.20;;
4569;SDS011;2297;51.442;6.996;2023-05-31T13:57:25;4.38;;;1.90;;
4569;SDS011;2297;51.442;6.996;2023-05-31T13:59:51;5.20;;;2.38;;
4569;SDS011;2297;51.442;6.996;2023-05-31T14:02:18;3.58;;;2.50;;
4569;SDS011;2297;51.442;6.996;2023-05-31T14:04:48;5.75;;;2.45;;
4569;SDS011;2297;51.442;6.996;2023-05-31T14:07:15;6.38;;;2.95;;
4569;SDS011;2297;51.442;6.996;2023-05-31T14:09:42;7.47;;;2.70;;
4569;SDS011;2297;51.442;6.996;2023-05-31T14:12:08;7.68;;;2.70;;
4569;SDS011;2297;51.442;6.996;2023-05-31T14:14:36;3.47;;;2.17;;
4569;SDS011;2297;51.442;6.996;2023-05-31T14:17:04;7.20;;;2.38;;
4569;SDS011;2297;51.442;6.996;2023-05-31T14:19:31;3.28;;;2.05;;
4569;SDS011;2297;51.442;6.996;2023-05-31T14:21:59;8.13;;;2.65;;
4569;SDS011;2297;51.442;6.996;2023-05-31T14:24:25;5.07;;;2.47;;
4569;SDS011;2297;51.442;6.996;2023-05-31T14:26:52;8.25;;;2.30;;
4569;SDS011;2297;51.442;6.996;2023-05-31T14:29:19;3.35;;;2.30;;
4569;SDS011;2297;51.442;6.996;2023-05-31T14:31:46;3.15;;;2.17;;
4569;SDS011;2297;51.442;6.996;2023-05-31T14:34:13;4.07;;;2.30;;
4569;SDS011;2297;51.442;6.996;2023-05-31T14:36:40;6.15;;;2.20;;
4569;SDS011;2297;51.442;6.996;2023-05-31T14:39:08;4.75;;;2.28;;
4569;SDS011;2297;51.442;6.996;2023-05-31T14:41:35;4.05;;;2.30;;
4569;SDS011;2297;51.442;6.996;2023-05-31T14:44:01;4.97;;;2.20;;
4569;SDS011;2297;51.442;6.996;2023-05-31T14:46:28;5.53;;;2.05;;
4569;SDS011;2297;51.442;6.996;2023-05-31T14:49:04;4.35;;;2.35;;
4569;SDS011;2297;51.442;6.996;2023-05-31T14:51:31;3.92;;;2.13;;
4569;SDS011;2297;51.442;6.996;2023-05-31T14:53:58;4.05;;;2.20;;
4569;SDS011;2297;51.442;6.996;2023-05-31T14:56:26;5.15;;;2.47;;
4569;SDS011;2297;51.442;6.996;2023-05-31T14:58:53;7.68;;;2.40;;
4569;SDS011;2297;51.442;6.996;2023-05-31T15:01:20;3.83;;;2.17;;
4569;SDS011;2297;51.442;6.996;2023-05-31T15:03:46;3.83;;;2.50;;
4569;SDS011;2297;51.442;6.996;2023-05-31T15:09:32;4.05;;;2.13;;
4569;SDS011;2297;51.442;6.996;2023-05-31T15:12:00;5.18;;;2.13;;
4569;SDS011;2297;51.442;6.996;2023-05-31T15:14:27;5.80;;;2.00;;
4569;SDS011;2297;51.442;6.996;2023-05-31T15:16:53;3.38;;;1.75;;
4569;SDS011;2297;51.442;6.996;2023-05-31T15:19:20;5.18;;;2.05;;
4569;SDS011;2297;51.442;6.996;2023-05-31T15:21:47;4.30;;;2.25;;
4569;SDS011;2297;51.442;6.996;2023-05-31T15:24:13;4.47;;;2.28;;
4569;SDS011;2297;51.442;6.996;2023-05-31T15:26:40;4.50;;;2.10;;
4569;SDS011;2297;51.442;6.996;2023-05-31T15:29:08;5.30;;;2.25;;
4569;SDS011;2297;51.442;6.996;2023-05-31T15:31:36;5.68;;;1.98;;
4569;SDS011;2297;51.442;6.996;2023-05-31T15:34:03;2.85;;;1.92;;